Time;durP1;ratioP1;P1;durP2;ratioP2;P2;SDS_P1;SDS_P2;PMS_P1;PMS_P2;Temp;Humidity;BMP_temperature;BMP_pressure;BME280_temperature;BME280_humidity;BME280_pressure;Samples;Min_cycle;Max_cycle;Signal;HPM_P1;HPM_P2
2023/03/10 00:00:49;;;;;;;2.25;0.80;;;;;;;;;;8240124;28;20022;-77
2023/03/10 00:04:50;;;;;;;1.52;0.80;;;;;;;;;;8239186;28;20054;-77
2023/03/10 00:08:50;;;;;;;0.75;0.75;;;;;;;;;;8241751;28;20490;-76
2023/03/10 00:12:51;;;;;;;1.27;0.80;;;;;;;;;;8250518;28;20033;-78
2023/03/10 00:16:51;;;;;;;1.50;0.90;;;;;;;;;;8243902;28;20034;-77
2023/03/10 00:20:52;;;;;;;3.53;1.02;;;;;;;;;;8243715;28;20021;-77
2023/03/10 00:24:52;;;;;;;2.67;1.00;;;;;;;;;;8249039;28;20233;-77
2023/03/10 00:28:52;;;;;;;2.15;0.95;;;;;;;;;;8245031;28;20033;-77
2023/03/10 00:32:53;;;;;;;1.17;0.80;;;;;;;;;;8245630;28;20903;-76
2023/03/10 00:36:53;;;;;;;1.05;0.80;;;;;;;;;;8249652;28;20022;-77
2023/03/10 00:41:00;;;;;;;1.40;0.98;;;;;;;;;;8244691;28;20046;-77
2023/03/10 00:45:00;;;;;;;1.40;0.70;;;;;;;;;;8244381;28;20034;-77
2023/03/10 00:49:00;;;;;;;0.73;0.70;;;;;;;;;;8243717;28;20141;-77
2023/03/10 00:53:00;;;;;;;1.00;0.70;;;;;;;;;;8244068;28;20065;-77
2023/03/10 00:57:01;;;;;;;1.17;0.88;;;;;;;;;;8245370;28;20030;-77
2023/03/10 01:01:02;;;;;;;1.95;0.70;;;;;;;;;;8242039;28;20034;-77
2023/03/10 01:05:03;;;;;;;1.95;0.82;;;;;;;;;;8243663;28;20026;-77
2023/03/10 01:09:03;;;;;;;2.93;0.80;;;;;;;;;;8243988;28;20844;-77
2023/03/10 01:13:03;;;;;;;0.60;0.60;;;;;;;;;;8244886;28;20634;-77
2023/03/10 01:17:04;;;;;;;0.70;0.70;;;;;;;;;;8247632;28;20038;-77
2023/03/10 01:21:04;;;;;;;1.08;0.70;;;;;;;;;;8249214;28;20402;-77
2023/03/10 01:25:05;;;;;;;0.88;0.60;;;;;;;;;;8256485;28;20030;-77
2023/03/10 01:29:05;;;;;;;0.68;0.60;;;;;;;;;;8241871;28;20749;-77
2023/03/10 01:33:06;;;;;;;0.63;0.50;;;;;;;;;;8253119;28;20077;-78
2023/03/10 01:37:06;;;;;;;0.80;0.70;;;;;;;;;;8241481;28;20297;-77
2023/03/10 01:41:07;;;;;;;0.68;0.60;;;;;;;;;;8243400;28;20065;-77
2023/03/10 01:45:27;;;;;;;0.73;0.70;;;;;;;;;;8249530;28;20046;-77
2023/03/10 01:49:36;;;;;;;0.70;0.55;;;;;;;;;;8247446;28;20030;-77
2023/03/10 01:53:36;;;;;;;0.85;0.60;;;;;;;;;;8244312;28;20760;-78
2023/03/10 01:57:39;;;;;;;2.17;0.70;;;;;;;;;;8243326;28;20030;-77
2023/03/10 02:01:39;;;;;;;3.10;0.73;;;;;;;;;;8242882;28;20026;-77
2023/03/10 02:06:05;;;;;;;1.65;0.90;;;;;;;;;;8243655;28;20026;-76
2023/03/10 02:10:06;;;;;;;2.38;0.80;;;;;;;;;;8240082;28;20045;-77
2023/03/10 02:14:06;;;;;;;1.98;1.10;;;;;;;;;;8242719;28;20026;-77
2023/03/10 02:18:08;;;;;;;2.67;1.00;;;;;;;;;;8245410;28;20830;-77
2023/03/10 02:22:10;;;;;;;1.25;0.70;;;;;;;;;;8242595;28;20064;-77
2023/03/10 02:26:14;;;;;;;3.03;0.75;;;;;;;;;;8247198;28;20052;-76
2023/03/10 02:30:17;;;;;;;1.73;0.73;;;;;;;;;;8242271;28;20096;-77
2023/03/10 02:34:17;;;;;;;0.90;0.80;;;;;;;;;;8242874;28;20039;-77
2023/03/10 02:38:18;;;;;;;0.70;0.70;;;;;;;;;;8242423;28;20069;-77
2023/03/10 02:42:18;;;;;;;1.92;1.00;;;;;;;;;;8243043;28;20061;-77
2023/03/10 02:46:19;;;;;;;1.52;0.80;;;;;;;;;;8247403;28;20026;-77
2023/03/10 02:50:20;;;;;;;1.42;0.80;;;;;;;;;;8242972;28;20836;-77
2023/03/10 02:54:20;;;;;;;1.63;0.80;;;;;;;;;;8243624;28;20037;-78
2023/03/10 02:58:21;;;;;;;0.80;0.80;;;;;;;;;;8241842;28;20038;-77
2023/03/10 03:02:21;;;;;;;5.10;1.10;;;;;;;;;;8241015;28;20038;-77
2023/03/10 03:06:22;;;;;;;1.20;0.80;;;;;;;;;;8243533;28;20053;-76
2023/03/10 03:10:22;;;;;;;4.70;1.40;;;;;;;;;;8240730;28;20095;-77
2023/03/10 03:14:23;;;;;;;2.20;0.80;;;;;;;;;;8247548;28;20281;-77
2023/03/10 03:18:23;;;;;;;0.88;0.73;;;;;;;;;;8255038;28;20034;-77
2023/03/10 03:22:23;;;;;;;3.13;1.17;;;;;;;;;;8240356;28;20083;-77
2023/03/10 03:26:25;;;;;;;4.60;1.08;;;;;;;;;;8241965;28;20022;-77
2023/03/10 03:30:26;;;;;;;3.28;0.95;;;;;;;;;;8241325;28;20037;-77
2023/03/10 03:34:26;;;;;;;3.03;1.02;;;;;;;;;;8242305;28;20022;-77
2023/03/10 03:38:26;;;;;;;5.95;1.58;;;;;;;;;;8241610;28;20033;-77
2023/03/10 03:42:27;;;;;;;4.67;1.20;;;;;;;;;;8240842;28;20844;-78
2023/03/10 03:46:27;;;;;;;2.38;0.95;;;;;;;;;;8240077;28;20835;-77
2023/03/10 03:50:27;;;;;;;5.05;1.30;;;;;;;;;;8246295;28;20140;-77
2023/03/10 03:54:27;;;;;;;4.65;1.63;;;;;;;;;;8247095;28;20030;-77
2023/03/10 03:58:27;;;;;;;7.13;1.38;;;;;;;;;;8247049;28;20087;-78
2023/03/10 04:02:27;;;;;;;8.32;1.48;;;;;;;;;;8243928;28;20049;-78
2023/03/10 04:06:28;;;;;;;5.53;1.40;;;;;;;;;;8246707;28;20231;-77
2023/03/10 04:10:28;;;;;;;6.35;1.60;;;;;;;;;;8245271;28;20801;-77
2023/03/10 04:14:29;;;;;;;7.30;1.73;;;;;;;;;;8253200;28;20017;-78
2023/03/10 04:18:29;;;;;;;5.10;1.27;;;;;;;;;;8258280;28;20038;-77
2023/03/10 04:22:29;;;;;;;6.22;1.80;;;;;;;;;;8245797;28;20026;-77
2023/03/10 04:26:29;;;;;;;3.80;1.25;;;;;;;;;;8248699;28;20034;-78
2023/03/10 04:30:30;;;;;;;8.45;1.30;;;;;;;;;;8244660;28;20038;-78
2023/03/10 04:34:30;;;;;;;5.77;1.47;;;;;;;;;;8245783;28;20026;-78
2023/03/10 04:38:30;;;;;;;7.37;1.70;;;;;;;;;;8259614;28;20379;-78
2023/03/10 04:42:30;;;;;;;4.85;1.30;;;;;;;;;;8261389;28;20280;-77
2023/03/10 04:46:31;;;;;;;7.22;1.45;;;;;;;;;;8244626;28;20092;-77
2023/03/10 04:50:31;;;;;;;5.57;1.30;;;;;;;;;;8246283;28;20748;-77
2023/03/10 04:54:31;;;;;;;4.32;1.63;;;;;;;;;;8250899;28;20467;-77
2023/03/10 04:58:32;;;;;;;4.82;1.42;;;;;;;;;;8245855;28;20902;-77
2023/03/10 05:02:33;;;;;;;7.03;1.75;;;;;;;;;;8244264;28;20034;-77
2023/03/10 05:06:33;;;;;;;5.28;1.20;;;;;;;;;;8261470;28;20023;-77
2023/03/10 05:10:34;;;;;;;7.00;1.70;;;;;;;;;;8252137;28;20096;-77
2023/03/10 05:14:35;;;;;;;2.25;1.13;;;;;;;;;;8251540;28;21012;-77
2023/03/10 05:18:35;;;;;;;7.35;1.35;;;;;;;;;;8247470;28;20628;-77
2023/03/10 05:22:36;;;;;;;5.15;1.38;;;;;;;;;;8244034;28;20134;-77
2023/03/10 05:26:36;;;;;;;4.90;1.30;;;;;;;;;;8249590;28;20061;-77
2023/03/10 05:30:36;;;;;;;7.55;1.65;;;;;;;;;;8249298;28;20031;-78
2023/03/10 05:34:37;;;;;;;4.43;1.50;;;;;;;;;;8244247;28;20818;-77
2023/03/10 05:38:37;;;;;;;6.65;1.20;;;;;;;;;;8243728;28;20036;-76
2023/03/10 05:42:37;;;;;;;6.10;1.40;;;;;;;;;;8251180;28;20018;-78
2023/03/10 05:46:37;;;;;;;8.35;1.40;;;;;;;;;;8241144;28;20092;-77
2023/03/10 05:50:38;;;;;;;12.35;1.42;;;;;;;;;;8237120;28;21109;-80
2023/03/10 05:54:38;;;;;;;4.68;1.40;;;;;;;;;;8250067;28;20706;-80
2023/03/10 05:58:38;;;;;;;4.95;1.77;;;;;;;;;;8245042;28;20764;-80
2023/03/10 06:02:39;;;;;;;5.20;1.10;;;;;;;;;;8249018;28;20041;-79
2023/03/10 06:06:39;;;;;;;3.45;1.20;;;;;;;;;;8244081;28;20383;-80
2023/03/10 06:10:40;;;;;;;2.50;0.90;;;;;;;;;;8241886;28;20096;-79
2023/03/10 06:14:40;;;;;;;3.58;0.98;;;;;;;;;;8244418;28;20026;-80
2023/03/10 06:18:40;;;;;;;7.32;1.45;;;;;;;;;;8242262;28;20109;-79
2023/03/10 06:22:40;;;;;;;11.82;2.03;;;;;;;;;;8243720;28;20017;-79
2023/03/10 06:26:41;;;;;;;5.32;1.35;;;;;;;;;;8242201;28;22187;-80
2023/03/10 06:30:41;;;;;;;9.10;1.38;;;;;;;;;;8247680;28;20042;-80
2023/03/10 06:34:41;;;;;;;13.75;2.05;;;;;;;;;;8245255;28;20018;-79
2023/03/10 06:38:41;;;;;;;9.43;2.15;;;;;;;;;;8243707;28;20017;-79
2023/03/10 06:42:42;;;;;;;7.43;1.50;;;;;;;;;;8258728;28;20030;-80
2023/03/10 06:46:42;;;;;;;7.20;1.75;;;;;;;;;;8254702;28;20080;-80
2023/03/10 06:50:43;;;;;;;8.67;1.97;;;;;;;;;;8241939;28;20022;-79
2023/03/10 06:54:43;;;;;;;5.20;1.55;;;;;;;;;;8242568;28;20614;-80
2023/03/10 06:58:44;;;;;;;7.43;1.50;;;;;;;;;;8244536;28;20105;-80
2023/03/10 07:02:44;;;;;;;8.75;1.70;;;;;;;;;;8242357;28;20030;-80
2023/03/10 07:06:44;;;;;;;7.80;1.35;;;;;;;;;;8242455;28;20087;-79
2023/03/10 07:10:45;;;;;;;3.67;1.15;;;;;;;;;;8241580;28;20032;-79
2023/03/10 07:14:45;;;;;;;5.57;1.15;;;;;;;;;;8240723;28;20052;-79
2023/03/10 07:18:45;;;;;;;2.85;0.85;;;;;;;;;;8256912;28;20038;-78
2023/03/10 07:22:45;;;;;;;2.88;0.90;;;;;;;;;;8240756;28;20680;-80
2023/03/10 07:26:45;;;;;;;2.78;0.90;;;;;;;;;;8243510;28;20088;-79
2023/03/10 07:30:46;;;;;;;5.53;1.80;;;;;;;;;;8256157;28;20635;-80
2023/03/10 07:34:46;;;;;;;3.47;0.93;;;;;;;;;;8243094;28;20030;-80
2023/03/10 07:38:46;;;;;;;1.33;0.77;;;;;;;;;;8247160;28;20307;-80
2023/03/10 07:42:47;;;;;;;0.88;0.60;;;;;;;;;;8243092;28;20129;-80
2023/03/10 07:46:47;;;;;;;1.95;0.60;;;;;;;;;;8241707;28;20040;-79
2023/03/10 07:50:54;;;;;;;2.95;0.70;;;;;;;;;;8257709;28;21003;-80
2023/03/10 07:54:54;;;;;;;1.50;0.60;;;;;;;;;;8244363;28;20057;-80
2023/03/10 07:58:54;;;;;;;1.10;0.70;;;;;;;;;;8241454;28;20310;-80
2023/03/10 08:02:54;;;;;;;3.70;1.00;;;;;;;;;;8241750;28;20046;-79
2023/03/10 08:06:54;;;;;;;4.63;1.10;;;;;;;;;;8243123;28;20491;-80
2023/03/10 08:11:05;;;;;;;4.03;1.00;;;;;;;;;;8239304;28;20121;-80
2023/03/10 08:15:06;;;;;;;4.95;1.10;;;;;;;;;;8246663;28;20030;-79
2023/03/10 08:19:06;;;;;;;4.32;1.25;;;;;;;;;;8240280;28;20027;-78
2023/03/10 08:23:06;;;;;;;4.47;1.15;;;;;;;;;;8244492;28;20022;-79
2023/03/10 08:27:07;;;;;;;4.78;1.45;;;;;;;;;;8243364;28;20921;-80
2023/03/10 08:31:14;;;;;;;6.47;1.10;;;;;;;;;;8241987;28;20035;-80
2023/03/10 08:35:15;;;;;;;4.35;1.05;;;;;;;;;;8252601;28;20515;-80
2023/03/10 08:39:15;;;;;;;3.28;1.02;;;;;;;;;;8247639;28;20815;-80
2023/03/10 08:43:16;;;;;;;1.80;0.95;;;;;;;;;;8248440;28;20798;-81
2023/03/10 08:47:16;;;;;;;1.63;0.80;;;;;;;;;;8252621;28;20061;-80
2023/03/10 08:51:17;;;;;;;2.00;0.90;;;;;;;;;;8249635;28;21020;-81
2023/03/10 08:55:17;;;;;;;3.65;1.00;;;;;;;;;;8249323;28;20053;-79
2023/03/10 08:59:18;;;;;;;3.53;0.90;;;;;;;;;;8262090;28;20026;-77
2023/03/10 09:03:18;;;;;;;1.38;0.70;;;;;;;;;;8251116;28;20859;-78
2023/03/10 09:07:18;;;;;;;1.83;0.75;;;;;;;;;;8248791;28;20088;-77
2023/03/10 09:11:23;;;;;;;1.80;1.00;;;;;;;;;;8246548;28;20034;-77
2023/03/10 09:15:23;;;;;;;2.33;0.95;;;;;;;;;;8247217;28;20042;-78
2023/03/10 09:19:23;;;;;;;2.70;0.88;;;;;;;;;;8250921;28;20662;-78
2023/03/10 09:23:23;;;;;;;1.73;0.80;;;;;;;;;;8247342;28;20157;-78
2023/03/10 09:27:24;;;;;;;2.58;1.00;;;;;;;;;;8245819;28;20057;-78
2023/03/10 09:31:27;;;;;;;3.17;0.70;;;;;;;;;;8245097;28;20460;-77
2023/03/10 09:35:27;;;;;;;2.83;0.80;;;;;;;;;;8245516;28;20037;-79
2023/03/10 09:39:27;;;;;;;2.67;0.88;;;;;;;;;;8246920;28;20037;-79
2023/03/10 09:43:29;;;;;;;3.08;0.90;;;;;;;;;;8246138;28;20026;-80
2023/03/10 09:47:48;;;;;;;3.25;0.90;;;;;;;;;;8253821;28;20690;-79
2023/03/10 09:51:50;;;;;;;2.80;0.70;;;;;;;;;;8245562;28;20033;-79
2023/03/10 09:55:51;;;;;;;1.38;0.55;;;;;;;;;;8244964;28;20040;-79
2023/03/10 09:59:54;;;;;;;0.43;0.43;;;;;;;;;;8244846;28;20018;-79
2023/03/10 10:04:27;;;;;;;1.98;0.68;;;;;;;;;;8245780;28;20042;-79
2023/03/10 10:08:47;;;;;;;1.20;0.60;;;;;;;;;;8229385;28;20483;-79
2023/03/10 10:12:48;;;;;;;2.72;0.80;;;;;;;;;;8247544;28;20044;-79
2023/03/10 10:16:54;;;;;;;4.60;1.00;;;;;;;;;;8246633;28;20074;-80
2023/03/10 10:20:59;;;;;;;2.20;0.77;;;;;;;;;;8244603;28;20137;-79
2023/03/10 10:25:19;;;;;;;0.80;0.77;;;;;;;;;;8245199;28;20026;-80
2023/03/10 10:29:19;;;;;;;1.73;0.80;;;;;;;;;;8249988;28;20042;-79
2023/03/10 10:33:19;;;;;;;0.68;0.50;;;;;;;;;;8245140;28;20038;-79
2023/03/10 10:37:22;;;;;;;1.50;0.70;;;;;;;;;;8245588;28;20026;-79
2023/03/10 10:41:27;;;;;;;1.73;0.60;;;;;;;;;;8244150;28;20116;-80
2023/03/10 10:45:29;;;;;;;0.50;0.50;;;;;;;;;;8258702;28;20634;-79
2023/03/10 10:49:32;;;;;;;1.30;0.50;;;;;;;;;;8243784;28;20054;-79
2023/03/10 10:53:34;;;;;;;0.50;0.50;;;;;;;;;;8246022;28;20745;-79
2023/03/10 10:57:37;;;;;;;0.43;0.43;;;;;;;;;;8243342;28;20208;-79
2023/03/10 11:01:51;;;;;;;0.50;0.50;;;;;;;;;;8258808;28;20034;-80
2023/03/10 11:05:51;;;;;;;0.68;0.68;;;;;;;;;;8245765;28;20029;-80
2023/03/10 11:09:53;;;;;;;1.45;0.70;;;;;;;;;;8244064;28;20030;-80
2023/03/10 11:13:59;;;;;;;2.80;0.70;;;;;;;;;;8248670;28;20064;-79
2023/03/10 11:18:05;;;;;;;0.80;0.70;;;;;;;;;;8247609;28;20045;-80
2023/03/10 11:22:25;;;;;;;0.73;0.52;;;;;;;;;;8244779;28;20068;-79
2023/03/10 11:26:32;;;;;;;2.05;0.90;;;;;;;;;;8240445;28;20125;-79
2023/03/10 11:30:38;;;;;;;4.07;0.70;;;;;;;;;;8241590;28;20614;-80
2023/03/10 11:34:41;;;;;;;1.65;0.80;;;;;;;;;;8244652;28;20034;-79
2023/03/10 11:38:47;;;;;;;1.33;0.80;;;;;;;;;;8241795;28;20065;-79
2023/03/10 11:42:53;;;;;;;1.50;0.70;;;;;;;;;;8241482;28;20081;-79
2023/03/10 11:46:57;;;;;;;1.35;0.60;;;;;;;;;;8257072;28;20085;-80
2023/03/10 11:50:58;;;;;;;0.50;0.50;;;;;;;;;;8247479;28;20141;-80
2023/03/10 11:55:13;;;;;;;1.55;0.70;;;;;;;;;;8243128;28;20759;-80
2023/03/10 11:59:14;;;;;;;0.65;0.40;;;;;;;;;;8244089;28;20065;-79
2023/03/10 12:03:18;;;;;;;0.40;0.40;;;;;;;;;;8245043;28;20026;-80
2023/03/10 12:07:21;;;;;;;0.85;0.60;;;;;;;;;;8248345;28;20038;-79
2023/03/10 12:11:24;;;;;;;1.87;0.60;;;;;;;;;;8248468;28;20443;-79
2023/03/10 12:15:31;;;;;;;0.50;0.50;;;;;;;;;;8263913;28;20875;-79
2023/03/10 12:19:31;;;;;;;0.55;0.40;;;;;;;;;;8247409;28;20762;-80
2023/03/10 12:23:38;;;;;;;0.50;0.50;;;;;;;;;;8249085;28;20107;-79
2023/03/10 12:28:11;;;;;;;1.73;0.40;;;;;;;;;;8253309;28;20280;-80
2023/03/10 12:32:30;;;;;;;0.52;0.50;;;;;;;;;;8235876;28;20595;-79
2023/03/10 12:36:33;;;;;;;5.68;0.80;;;;;;;;;;8251217;28;20018;-79
2023/03/10 12:40:49;;;;;;;0.50;0.50;;;;;;;;;;8263564;28;20018;-79
2023/03/10 12:44:52;;;;;;;0.30;0.30;;;;;;;;;;8244777;28;20558;-79
2023/03/10 12:49:07;;;;;;;0.40;0.40;;;;;;;;;;8242826;28;20137;-79
2023/03/10 12:53:21;;;;;;;1.27;0.50;;;;;;;;;;8251019;28;20062;-79
2023/03/10 12:57:38;;;;;;;0.73;0.50;;;;;;;;;;8260365;28;20036;-79
2023/03/10 13:01:42;;;;;;;0.40;0.40;;;;;;;;;;8244427;28;21061;-79
2023/03/10 13:05:57;;;;;;;0.50;0.50;;;;;;;;;;8244329;28;20116;-79
2023/03/10 13:09:58;;;;;;;0.77;0.57;;;;;;;;;;8243941;28;20026;-80
2023/03/10 13:13:58;;;;;;;0.68;0.60;;;;;;;;;;8238446;28;20586;-79
2023/03/10 13:18:08;;;;;;;1.30;0.40;;;;;;;;;;8243014;28;20054;-79
2023/03/10 13:22:15;;;;;;;1.23;0.43;;;;;;;;;;8248026;28;20025;-80
2023/03/10 13:26:15;;;;;;;4.05;1.10;;;;;;;;;;8252498;28;20065;-79
2023/03/10 13:30:18;;;;;;;0.70;0.70;;;;;;;;;;8260485;28;20030;-79
2023/03/10 13:34:20;;;;;;;0.57;0.57;;;;;;;;;;8244304;28;20060;-78
2023/03/10 13:38:23;;;;;;;0.50;0.50;;;;;;;;;;8259814;28;20029;-78
2023/03/10 13:42:24;;;;;;;0.88;0.60;;;;;;;;;;8244511;28;20487;-79
2023/03/10 13:46:26;;;;;;;0.40;0.40;;;;;;;;;;8243905;28;20640;-80
2023/03/10 13:50:26;;;;;;;0.55;0.50;;;;;;;;;;8244216;28;20484;-79
2023/03/10 13:54:31;;;;;;;0.40;0.40;;;;;;;;;;8249581;28;20089;-79
2023/03/10 13:58:31;;;;;;;0.50;0.50;;;;;;;;;;8244342;28;20033;-80
2023/03/10 14:02:32;;;;;;;0.55;0.55;;;;;;;;;;8242357;28;20038;-79
2023/03/10 14:06:33;;;;;;;0.40;0.40;;;;;;;;;;8236289;28;20030;-79
2023/03/10 14:10:34;;;;;;;2.70;0.50;;;;;;;;;;8235046;28;20483;-80
2023/03/10 14:14:35;;;;;;;0.40;0.40;;;;;;;;;;8237287;28;20026;-79
2023/03/10 14:18:36;;;;;;;0.32;0.32;;;;;;;;;;8238668;28;20056;-80
2023/03/10 14:22:42;;;;;;;0.45;0.30;;;;;;;;;;8238021;28;20026;-80
2023/03/10 14:26:43;;;;;;;0.57;0.40;;;;;;;;;;8243017;28;20631;-78
2023/03/10 14:30:43;;;;;;;0.30;0.30;;;;;;;;;;8232152;28;20731;-80
2023/03/10 14:34:43;;;;;;;0.40;0.40;;;;;;;;;;8239754;28;20032;-79
2023/03/10 14:38:44;;;;;;;0.30;0.30;;;;;;;;;;8244070;28;20929;-79
2023/03/10 14:42:46;;;;;;;0.90;0.45;;;;;;;;;;8242181;28;20469;-80
2023/03/10 14:46:46;;;;;;;3.55;0.47;;;;;;;;;;8243593;28;20034;-79
2023/03/10 14:50:47;;;;;;;0.65;0.40;;;;;;;;;;8242633;28;20100;-79
2023/03/10 14:54:47;;;;;;;0.88;0.40;;;;;;;;;;8258974;28;20053;-80
2023/03/10 14:58:48;;;;;;;0.65;0.40;;;;;;;;;;8244176;28;20034;-79
2023/03/10 15:02:48;;;;;;;1.08;0.40;;;;;;;;;;8247351;28;20030;-78
2023/03/10 15:06:49;;;;;;;0.52;0.40;;;;;;;;;;8231998;28;20038;-78
2023/03/10 15:10:49;;;;;;;0.95;0.70;;;;;;;;;;8239224;28;20033;-79
2023/03/10 15:14:51;;;;;;;0.63;0.40;;;;;;;;;;8241541;28;20100;-80
2023/03/10 15:18:52;;;;;;;0.77;0.50;;;;;;;;;;8239437;28;20046;-79
2023/03/10 15:22:52;;;;;;;2.17;0.80;;;;;;;;;;8242389;28;20025;-78
2023/03/10 15:26:52;;;;;;;0.82;0.70;;;;;;;;;;8240338;28;20315;-77
2023/03/10 15:30:53;;;;;;;3.22;0.82;;;;;;;;;;8235258;28;20060;-77
2023/03/10 15:34:53;;;;;;;0.70;0.70;;;;;;;;;;8248649;28;20044;-80
2023/03/10 15:38:54;;;;;;;1.53;1.00;;;;;;;;;;8247288;28;20026;-79
2023/03/10 15:42:57;;;;;;;0.82;0.75;;;;;;;;;;8247241;28;20291;-79
2023/03/10 15:46:57;;;;;;;2.55;1.30;;;;;;;;;;8244901;28;20049;-79
2023/03/10 15:50:58;;;;;;;1.17;1.08;;;;;;;;;;8241827;28;20710;-79
2023/03/10 15:54:59;;;;;;;1.50;1.00;;;;;;;;;;8244626;28;20029;-79
2023/03/10 15:58:59;;;;;;;3.35;1.20;;;;;;;;;;8256752;28;20724;-78
2023/03/10 16:02:59;;;;;;;2.45;1.00;;;;;;;;;;8242238;28;20038;-79
2023/03/10 16:07:03;;;;;;;1.02;0.80;;;;;;;;;;8248060;28;20054;-79
2023/03/10 16:11:07;;;;;;;1.67;1.00;;;;;;;;;;8243554;28;20029;-79
2023/03/10 16:15:08;;;;;;;4.38;1.33;;;;;;;;;;8243243;28;20037;-79
2023/03/10 16:19:08;;;;;;;4.07;1.30;;;;;;;;;;8243058;28;20026;-78
2023/03/10 16:23:08;;;;;;;1.95;0.98;;;;;;;;;;8244405;28;20030;-78
2023/03/10 16:27:09;;;;;;;4.18;1.10;;;;;;;;;;8242977;28;20037;-78
2023/03/10 16:31:10;;;;;;;2.28;1.30;;;;;;;;;;8244443;28;20038;-79
2023/03/10 16:35:10;;;;;;;2.72;1.10;;;;;;;;;;8240491;28;20026;-79
2023/03/10 16:39:11;;;;;;;2.20;1.15;;;;;;;;;;8243559;28;20061;-78
2023/03/10 16:43:11;;;;;;;4.15;1.25;;;;;;;;;;8245177;28;20097;-80
2023/03/10 16:47:11;;;;;;;6.63;1.60;;;;;;;;;;8243628;28;20585;-78
2023/03/10 16:51:27;;;;;;;4.07;1.40;;;;;;;;;;8248619;28;20018;-79
2023/03/10 16:55:27;;;;;;;2.90;1.30;;;;;;;;;;8245295;28;20027;-79
2023/03/10 16:59:28;;;;;;;3.90;1.45;;;;;;;;;;8263358;28;20129;-81
2023/03/10 17:03:28;;;;;;;2.70;1.25;;;;;;;;;;8247839;28;20030;-79
2023/03/10 17:07:28;;;;;;;0.85;0.80;;;;;;;;;;8229815;28;21397;-80
2023/03/10 17:11:30;;;;;;;2.13;0.80;;;;;;;;;;8236897;28;20053;-79
2023/03/10 17:15:30;;;;;;;1.00;0.80;;;;;;;;;;8245639;28;20136;-77
2023/03/10 17:19:30;;;;;;;1.40;0.90;;;;;;;;;;8247490;28;20068;-79
2023/03/10 17:23:33;;;;;;;6.00;1.00;;;;;;;;;;8247703;28;20065;-76
2023/03/10 17:27:33;;;;;;;2.88;0.80;;;;;;;;;;8253260;28;20309;-77
2023/03/10 17:31:34;;;;;;;0.73;0.70;;;;;;;;;;8248577;28;20049;-76
2023/03/10 17:35:35;;;;;;;1.48;0.80;;;;;;;;;;8245904;28;20029;-77
2023/03/10 17:39:35;;;;;;;1.30;0.90;;;;;;;;;;8251126;28;20033;-77
2023/03/10 17:43:36;;;;;;;1.05;0.85;;;;;;;;;;8245039;28;20026;-77
2023/03/10 17:47:36;;;;;;;1.20;0.70;;;;;;;;;;8247751;28;20041;-77
2023/03/10 17:51:37;;;;;;;1.40;1.10;;;;;;;;;;8247155;28;20030;-79
2023/03/10 17:55:37;;;;;;;1.65;0.90;;;;;;;;;;8244630;28;20045;-77
2023/03/10 17:59:37;;;;;;;0.70;0.70;;;;;;;;;;8247816;28;20030;-76
2023/03/10 18:03:38;;;;;;;0.80;0.70;;;;;;;;;;8241870;28;20048;-76
2023/03/10 18:07:38;;;;;;;1.02;0.70;;;;;;;;;;8242371;28;20603;-77
2023/03/10 18:11:38;;;;;;;6.93;0.80;;;;;;;;;;8241452;28;20026;-75
2023/03/10 18:15:39;;;;;;;2.40;0.60;;;;;;;;;;8240210;28;20045;-74
2023/03/10 18:19:39;;;;;;;0.60;0.60;;;;;;;;;;8256172;28;20382;-74
2023/03/10 18:23:39;;;;;;;0.88;0.70;;;;;;;;;;8240814;28;20073;-74
2023/03/10 18:27:39;;;;;;;0.70;0.70;;;;;;;;;;8240856;28;20042;-74
2023/03/10 18:31:40;;;;;;;0.57;0.57;;;;;;;;;;8240369;28;20077;-74
2023/03/10 18:35:41;;;;;;;0.73;0.70;;;;;;;;;;8244790;28;20029;-75
2023/03/10 18:39:41;;;;;;;3.88;0.70;;;;;;;;;;8250064;28;20075;-74
2023/03/10 18:43:42;;;;;;;2.20;0.87;;;;;;;;;;8243403;28;20011;-75
2023/03/10 18:47:42;;;;;;;0.70;0.70;;;;;;;;;;8237675;28;20280;-75
2023/03/10 18:51:42;;;;;;;0.93;0.90;;;;;;;;;;8255358;28;20032;-74
2023/03/10 18:55:43;;;;;;;0.90;0.90;;;;;;;;;;8239930;28;20706;-75
2023/03/10 18:59:43;;;;;;;0.80;0.80;;;;;;;;;;8255651;28;20630;-75
2023/03/10 19:03:43;;;;;;;1.05;0.90;;;;;;;;;;8241076;28;20274;-75
2023/03/10 19:07:43;;;;;;;1.20;0.90;;;;;;;;;;8245740;28;20030;-74
2023/03/10 19:11:44;;;;;;;1.30;1.20;;;;;;;;;;8241643;28;20269;-74
2023/03/10 19:15:44;;;;;;;1.33;1.23;;;;;;;;;;8239997;28;20033;-75
2023/03/10 19:19:44;;;;;;;1.33;1.23;;;;;;;;;;8237959;28;20022;-74
2023/03/10 19:23:45;;;;;;;1.00;1.00;;;;;;;;;;8240718;28;20948;-74
2023/03/10 19:27:47;;;;;;;1.42;1.30;;;;;;;;;;8239958;28;20033;-74
2023/03/10 19:31:47;;;;;;;1.50;1.40;;;;;;;;;;8239229;28;20164;-75
2023/03/10 19:35:49;;;;;;;1.27;1.05;;;;;;;;;;8244944;28;20077;-74
2023/03/10 19:39:49;;;;;;;3.03;1.40;;;;;;;;;;8240716;28;20034;-73
2023/03/10 19:43:53;;;;;;;2.50;1.30;;;;;;;;;;8242330;28;20072;-74
2023/03/10 19:47:53;;;;;;;1.67;1.58;;;;;;;;;;8239801;28;20038;-74
2023/03/10 19:51:53;;;;;;;1.77;1.38;;;;;;;;;;8238382;28;20028;-73
2023/03/10 19:55:54;;;;;;;1.40;1.30;;;;;;;;;;8239144;28;20906;-74
2023/03/10 19:59:54;;;;;;;2.42;1.30;;;;;;;;;;8237802;28;20022;-73
2023/03/10 20:03:59;;;;;;;1.38;1.27;;;;;;;;;;8238896;28;20092;-74
2023/03/10 20:08:01;;;;;;;1.80;1.40;;;;;;;;;;8240291;28;20028;-73
2023/03/10 20:12:01;;;;;;;1.30;1.20;;;;;;;;;;8240843;28;20041;-74
2023/03/10 20:16:02;;;;;;;0.98;0.98;;;;;;;;;;8240101;28;20403;-73
2023/03/10 20:20:08;;;;;;;1.25;0.90;;;;;;;;;;8236700;28;20034;-73
2023/03/10 20:24:09;;;;;;;2.15;1.08;;;;;;;;;;8239648;28;20026;-73
2023/03/10 20:28:09;;;;;;;0.90;0.90;;;;;;;;;;8240388;28;20449;-74
2023/03/10 20:32:09;;;;;;;0.80;0.80;;;;;;;;;;8242457;28;20084;-73
2023/03/10 20:36:12;;;;;;;1.30;1.20;;;;;;;;;;8245343;28;20026;-73
2023/03/10 20:40:15;;;;;;;1.10;1.00;;;;;;;;;;8251526;28;20771;-74
2023/03/10 20:44:17;;;;;;;1.45;1.00;;;;;;;;;;8251406;28;20026;-73
2023/03/10 20:48:18;;;;;;;1.67;1.10;;;;;;;;;;8245234;28;20038;-73
2023/03/10 20:52:18;;;;;;;0.90;0.90;;;;;;;;;;8245413;28;20036;-74
2023/03/10 20:56:18;;;;;;;0.67;0.67;;;;;;;;;;8245149;28;20037;-73
2023/03/10 21:00:20;;;;;;;0.90;0.90;;;;;;;;;;8245260;28;20767;-74
2023/03/10 21:04:20;;;;;;;0.82;0.82;;;;;;;;;;8248645;28;20032;-74
2023/03/10 21:08:20;;;;;;;0.85;0.85;;;;;;;;;;8243727;28;20030;-74
2023/03/10 21:12:20;;;;;;;0.90;0.90;;;;;;;;;;8245230;28;20057;-74
2023/03/10 21:16:21;;;;;;;0.88;0.88;;;;;;;;;;8249607;28;20081;-74
2023/03/10 21:20:21;;;;;;;0.80;0.80;;;;;;;;;;8248148;28;20030;-74
2023/03/10 21:24:22;;;;;;;1.13;0.90;;;;;;;;;;8245143;28;20721;-73
2023/03/10 21:28:22;;;;;;;1.33;1.23;;;;;;;;;;8250623;28;20591;-73
2023/03/10 21:32:22;;;;;;;0.98;0.70;;;;;;;;;;8244067;28;20281;-73
2023/03/10 21:36:22;;;;;;;0.80;0.80;;;;;;;;;;8244728;28;20087;-75
2023/03/10 21:40:23;;;;;;;0.80;0.80;;;;;;;;;;8246566;28;20064;-74
2023/03/10 21:44:23;;;;;;;0.70;0.70;;;;;;;;;;8262077;28;20029;-75
2023/03/10 21:48:23;;;;;;;1.95;0.70;;;;;;;;;;8242964;28;20294;-75
2023/03/10 21:52:23;;;;;;;0.65;0.65;;;;;;;;;;8248576;28;20025;-74
2023/03/10 21:56:27;;;;;;;0.90;0.70;;;;;;;;;;8246447;28;20643;-75
2023/03/10 22:00:28;;;;;;;0.83;0.83;;;;;;;;;;8245270;28;20041;-75
2023/03/10 22:04:29;;;;;;;0.80;0.80;;;;;;;;;;8245730;28;20029;-75
2023/03/10 22:08:29;;;;;;;0.95;0.70;;;;;;;;;;8244910;28;20030;-76
2023/03/10 22:12:29;;;;;;;0.70;0.70;;;;;;;;;;8249040;28;20645;-75
2023/03/10 22:16:30;;;;;;;0.70;0.70;;;;;;;;;;8246322;28;20034;-75
2023/03/10 22:20:30;;;;;;;0.60;0.60;;;;;;;;;;8243415;28;20605;-75
2023/03/10 22:24:30;;;;;;;0.50;0.50;;;;;;;;;;8247135;28;20076;-75
2023/03/10 22:28:31;;;;;;;0.60;0.60;;;;;;;;;;8242905;28;20138;-75
2023/03/10 22:32:31;;;;;;;0.63;0.60;;;;;;;;;;8245802;28;20045;-75
2023/03/10 22:36:31;;;;;;;0.93;0.80;;;;;;;;;;8246448;28;20015;-75
2023/03/10 22:40:32;;;;;;;0.85;0.70;;;;;;;;;;8242916;28;20320;-74
2023/03/10 22:44:33;;;;;;;0.65;0.60;;;;;;;;;;8246324;28;20263;-75
2023/03/10 22:48:33;;;;;;;0.57;0.57;;;;;;;;;;8244089;28;20703;-75
2023/03/10 22:52:33;;;;;;;0.52;0.50;;;;;;;;;;8245335;28;20037;-74
2023/03/10 22:56:33;;;;;;;0.82;0.60;;;;;;;;;;8243234;28;20030;-74
2023/03/10 23:00:34;;;;;;;1.00;0.60;;;;;;;;;;8245739;28;20045;-76
2023/03/10 23:04:34;;;;;;;1.75;0.60;;;;;;;;;;8263166;28;20072;-76
2023/03/10 23:08:36;;;;;;;1.75;0.50;;;;;;;;;;8245457;28;20025;-75
2023/03/10 23:12:38;;;;;;;1.38;0.68;;;;;;;;;;8246721;28;20095;-75
2023/03/10 23:16:38;;;;;;;0.77;0.70;;;;;;;;;;8245301;28;20037;-76
2023/03/10 23:20:40;;;;;;;2.97;0.70;;;;;;;;;;8243811;28;20851;-75
2023/03/10 23:24:40;;;;;;;1.33;0.70;;;;;;;;;;8245544;28;20022;-75
2023/03/10 23:28:40;;;;;;;1.05;0.60;;;;;;;;;;8245142;28;20046;-75
2023/03/10 23:32:41;;;;;;;1.30;0.80;;;;;;;;;;8244795;28;20367;-75
2023/03/10 23:36:42;;;;;;;2.42;0.70;;;;;;;;;;8242716;28;20029;-75
2023/03/10 23:40:42;;;;;;;2.88;0.63;;;;;;;;;;8247086;28;20028;-75
2023/03/10 23:44:42;;;;;;;2.25;0.60;;;;;;;;;;8254531;28;20033;-76
2023/03/10 23:48:42;;;;;;;3.50;0.80;;;;;;;;;;8246256;28;20063;-75
2023/03/10 23:52:43;;;;;;;4.65;0.88;;;;;;;;;;8258843;28;20022;-75
2023/03/10 23:56:43;;;;;;;1.73;0.70;;;;;;;;;;8244998;28;20027;-74
